createdAt,value
2022-12-05T00:00:20.098Z,94627.47
2022-12-05T00:01:31.806Z,94619.06
2022-12-05T00:02:28.474Z,94617.06
2022-12-05T00:03:25.094Z,94622.50
2022-12-05T00:04:22.063Z,94626.66
2022-12-05T00:05:18.745Z,94624.94
2022-12-05T00:06:15.972Z,94624.28
2022-12-05T00:07:12.670Z,94624.44
2022-12-05T00:08:09.384Z,94625.78
2022-12-05T00:09:07.999Z,94617.84
2022-12-05T00:10:06.366Z,94614.78
2022-12-05T00:11:02.934Z,94615.28
2022-12-05T00:11:59.566Z,94618.78
2022-12-05T00:12:56.189Z,94622.78
2022-12-05T00:13:54.807Z,94618.72
2022-12-05T00:14:51.570Z,94622.88
2022-12-05T00:15:48.180Z,94620.22
2022-12-05T00:16:44.887Z,94609.28
2022-12-05T00:17:41.733Z,94590.16
2022-12-05T00:18:38.478Z,94617.66
2022-12-05T00:19:35.098Z,94590.44
2022-12-05T00:20:31.783Z,94616.34
2022-12-05T00:21:30.936Z,94618.06
2022-12-05T00:22:27.554Z,94611.28
2022-12-05T00:23:24.107Z,94609.34
2022-12-05T00:24:20.896Z,94602.94
2022-12-05T00:25:17.710Z,94619.00
2022-12-05T00:26:14.577Z,94625.63
2022-12-05T00:27:11.235Z,94583.84
2022-12-05T00:28:07.914Z,94618.28
2022-12-05T00:29:04.803Z,94600.84
2022-12-05T00:30:01.499Z,94599.00
2022-12-05T00:30:58.123Z,94628.78
2022-12-05T00:31:54.747Z,94625.72
2022-12-05T00:32:51.375Z,94629.84
2022-12-05T00:33:49.323Z,94626.06
2022-12-05T00:34:45.987Z,94575.94
2022-12-05T00:35:42.546Z,94626.78
2022-12-05T00:36:39.467Z,94616.88
2022-12-05T00:37:36.458Z,94630.00
2022-12-05T00:38:33.121Z,94629.00
2022-12-05T00:39:29.726Z,94627.16
2022-12-05T00:40:26.323Z,94637.19
2022-12-05T00:41:25.368Z,94635.44
2022-12-05T00:42:21.950Z,94636.22
2022-12-05T00:43:18.520Z,94632.91
2022-12-05T00:44:15.088Z,94630.88
2022-12-05T00:45:11.762Z,94648.03
2022-12-05T00:46:11.296Z,94618.44
2022-12-05T00:47:08.106Z,94563.81
2022-12-05T00:48:05.039Z,94629.97
2022-12-05T00:49:03.806Z,94635.22
2022-12-05T00:50:00.549Z,94632.06
2022-12-05T00:51:15.501Z,94616.50
2022-12-05T00:52:12.082Z,94623.00
2022-12-05T00:53:08.678Z,94614.84
2022-12-05T00:54:08.682Z,94622.34
2022-12-05T00:55:05.712Z,94618.28
2022-12-05T00:56:04.026Z,94619.00
2022-12-05T00:57:00.610Z,94616.78
2022-12-05T00:57:57.158Z,94578.81
2022-12-05T00:58:55.148Z,94606.41
2022-12-05T00:59:51.749Z,94607.19
2022-12-05T01:00:48.327Z,94606.06
2022-12-05T01:01:46.540Z,94563.72
2022-12-05T01:02:43.230Z,94610.88
2022-12-05T01:03:40.492Z,94612.44
2022-12-05T01:04:37.181Z,94603.84
2022-12-05T01:05:34.492Z,94571.44
2022-12-05T01:06:31.211Z,94608.78
2022-12-05T01:07:27.858Z,94607.69
2022-12-05T01:08:25.069Z,94597.09
2022-12-05T01:09:22.132Z,94601.59
2022-12-05T01:10:18.732Z,94580.16
2022-12-05T01:11:17.915Z,94605.50
2022-12-05T01:12:14.566Z,94598.94
2022-12-05T01:13:11.136Z,94603.28
2022-12-05T01:14:07.999Z,94612.66
2022-12-05T01:15:04.954Z,94604.22
2022-12-05T01:16:02.510Z,94602.22
2022-12-05T01:16:59.248Z,94585.56
2022-12-05T01:17:55.887Z,94603.19
2022-12-05T01:18:52.914Z,94605.91
2022-12-05T01:19:49.530Z,94601.28
2022-12-05T01:20:46.903Z,94599.19
2022-12-05T01:21:44.008Z,94593.75
2022-12-05T01:22:40.650Z,94565.97
2022-12-05T01:23:37.752Z,94564.00
2022-12-05T01:24:34.348Z,94580.41
2022-12-05T01:25:30.926Z,94590.94
2022-12-05T01:26:27.732Z,94594.69
2022-12-05T01:27:24.398Z,94578.00
2022-12-05T01:28:21.108Z,94594.34
2022-12-05T01:29:21.347Z,94584.97
2022-12-05T01:30:18.108Z,94594.22
2022-12-05T01:31:29.745Z,94599.50
2022-12-05T01:32:26.350Z,94600.66
2022-12-05T01:33:22.947Z,94592.06
2022-12-05T01:34:19.893Z,94593.88
2022-12-05T01:35:16.689Z,94586.38
2022-12-05T01:36:13.409Z,94593.63
2022-12-05T01:37:10.052Z,94589.78
2022-12-05T01:38:07.616Z,94597.22
2022-12-05T01:39:04.246Z,94588.44
2022-12-05T01:40:00.860Z,94595.50
2022-12-05T01:41:02.374Z,94584.09
2022-12-05T01:41:59.719Z,94591.63
2022-12-05T01:42:56.496Z,94598.41
2022-12-05T01:43:58.138Z,94587.78
2022-12-05T01:44:54.654Z,94594.44
2022-12-05T01:45:51.516Z,94585.66
2022-12-05T01:46:50.657Z,94596.50
2022-12-05T01:47:47.450Z,94586.50
2022-12-05T01:48:44.582Z,94518.97
2022-12-05T01:49:42.872Z,94538.47
2022-12-05T01:50:39.541Z,94595.72
2022-12-05T01:51:39.314Z,94595.72
2022-12-05T01:52:36.375Z,94593.69
2022-12-05T01:53:34.045Z,94542.81
2022-12-05T01:54:30.798Z,94570.53
2022-12-05T01:55:27.797Z,94586.56
2022-12-05T01:56:24.628Z,94452.06
2022-12-05T01:57:22.798Z,94581.88
2022-12-05T01:58:19.920Z,94582.50
2022-12-05T01:59:18.698Z,94586.13
2022-12-05T02:00:18.676Z,94510.63
2022-12-05T02:01:17.785Z,94572.75
2022-12-05T02:02:14.809Z,94582.16
2022-12-05T02:03:17.363Z,94577.69
2022-12-05T02:04:14.039Z,94575.94
2022-12-05T02:05:18.959Z,94574.78
2022-12-05T02:06:16.313Z,94577.34
2022-12-05T02:07:13.035Z,94578.28
2022-12-05T02:08:11.254Z,94581.44
2022-12-05T02:09:07.906Z,94584.88
2022-12-05T02:10:07.005Z,94588.84
2022-12-05T02:11:07.311Z,94579.72
2022-12-05T02:12:04.819Z,94584.13
2022-12-05T02:13:15.057Z,94587.88
2022-12-05T02:14:41.129Z,94580.38
2022-12-05T02:15:45.677Z,94582.78
2022-12-05T02:16:53.995Z,94559.47
2022-12-05T02:18:05.835Z,94580.63
2022-12-05T02:19:20.175Z,94512.47
2022-12-05T02:20:19.539Z,94578.72
2022-12-05T02:21:16.134Z,94585.22
2022-12-05T02:22:42.986Z,94578.00
2022-12-05T02:23:51.440Z,94574.69
2022-12-05T02:25:19.841Z,94587.91
2022-12-05T02:26:38.002Z,94583.28
2022-12-05T02:27:43.567Z,94579.19
2022-12-05T02:29:04.771Z,94569.81
2022-12-05T02:30:05.812Z,94578.81
2022-12-05T02:31:28.823Z,94573.72
2022-12-05T02:33:01.343Z,94570.19
2022-12-05T02:34:16.648Z,94501.81
2022-12-05T02:35:28.109Z,94487.22
2022-12-05T02:36:56.311Z,94539.00
2022-12-05T02:38:25.141Z,94560.63
2022-12-05T02:39:45.648Z,94558.66
2022-12-05T02:40:57.331Z,94561.38
2022-12-05T02:42:07.101Z,94568.66
2022-12-05T02:43:25.201Z,94568.22
2022-12-05T02:44:30.429Z,94568.22
2022-12-05T02:45:31.291Z,94568.16
2022-12-05T02:46:30.975Z,94564.38
2022-12-05T02:47:33.058Z,94543.31
2022-12-05T02:48:29.892Z,94564.88
2022-12-05T02:49:31.745Z,94536.28
2022-12-05T02:50:35.577Z,94566.22
2022-12-05T02:51:36.706Z,94581.09
2022-12-05T02:52:34.778Z,94567.66
2022-12-05T02:53:32.197Z,94540.81
2022-12-05T02:54:33.942Z,94568.88
2022-12-05T02:55:32.398Z,94562.28
2022-12-05T02:56:32.190Z,94566.22
2022-12-05T02:57:29.522Z,94563.91
2022-12-05T02:58:33.815Z,94563.97
2022-12-05T02:59:30.454Z,94562.63
2022-12-05T03:00:27.142Z,94566.56
2022-12-05T03:01:27.638Z,94548.75
2022-12-05T03:02:32.547Z,94565.69
2022-12-05T03:03:30.583Z,94570.09
2022-12-05T03:04:29.117Z,94520.31
2022-12-05T03:05:32.972Z,94567.13
2022-12-05T03:06:42.628Z,94562.34
2022-12-05T03:07:41.077Z,94544.88
2022-12-05T03:08:59.099Z,94568.97
2022-12-05T03:10:01.649Z,94562.34
2022-12-05T03:11:00.126Z,94557.41
2022-12-05T03:12:10.163Z,94559.06
2022-12-05T03:13:14.020Z,94562.00
2022-12-05T03:14:21.707Z,94561.00
2022-12-05T03:15:24.803Z,94565.63
2022-12-05T03:16:28.719Z,94568.16
2022-12-05T03:17:47.099Z,94565.75
2022-12-05T03:18:56.713Z,94554.44
2022-12-05T03:19:53.438Z,94559.38
2022-12-05T03:21:13.112Z,94563.31
2022-12-05T03:22:19.074Z,94561.41
2022-12-05T03:23:21.022Z,94570.72
2022-12-05T03:24:17.747Z,94563.97
2022-12-05T03:25:15.017Z,94551.06
2022-12-05T03:26:42.731Z,94563.59
2022-12-05T03:27:53.866Z,94565.50
2022-12-05T03:28:57.066Z,94557.47
2022-12-05T03:30:02.147Z,94569.16
2022-12-05T03:31:06.524Z,94542.31
2022-12-05T03:32:47.854Z,94570.31
2022-12-05T03:33:49.552Z,94537.25
2022-12-05T03:34:57.471Z,94567.78
2022-12-05T03:36:11.847Z,94564.44
2022-12-05T03:37:18.932Z,94561.53
2022-12-05T03:38:29.959Z,94550.16
2022-12-05T03:39:32.613Z,94566.50
2022-12-05T03:40:32.050Z,94568.22
2022-12-05T03:41:43.008Z,94565.72
2022-12-05T03:42:43.552Z,94562.00
2022-12-05T03:43:50.394Z,94557.78
2022-12-05T03:44:54.879Z,94530.25
2022-12-05T03:46:03.678Z,94565.88
2022-12-05T03:47:12.879Z,94537.28
2022-12-05T03:48:24.623Z,94512.28
2022-12-05T03:49:33.714Z,94557.94
2022-12-05T03:50:31.077Z,94562.09
2022-12-05T03:51:34.392Z,94559.31
2022-12-05T03:52:57.146Z,94565.59
2022-12-05T03:54:02.365Z,94542.16
2022-12-05T03:55:04.443Z,94572.66
2022-12-05T03:56:13.484Z,94569.81
2022-12-05T03:57:22.185Z,94572.72
2022-12-05T03:58:26.718Z,94574.78
2022-12-05T03:59:52.793Z,94563.22
2022-12-05T04:00:54.196Z,94568.59
2022-12-05T04:01:53.111Z,94563.47
2022-12-05T04:02:54.821Z,94561.53
2022-12-05T04:03:58.450Z,94562.66
2022-12-05T04:05:01.206Z,94567.88
2022-12-05T04:06:01.543Z,94552.53
2022-12-05T04:07:00.185Z,94568.53
2022-12-05T04:08:03.795Z,94569.81
2022-12-05T04:09:17.496Z,94575.34
2022-12-05T04:10:19.668Z,94546.34
2022-12-05T04:11:20.985Z,94564.84
2022-12-05T04:12:23.742Z,94575.06
2022-12-05T04:13:23.822Z,94562.78
2022-12-05T04:14:28.386Z,94491.41
2022-12-05T04:15:51.561Z,94566.81
2022-12-05T04:17:15.437Z,94565.00
2022-12-05T04:18:12.685Z,94563.94
2022-12-05T04:19:24.317Z,94534.94
2022-12-05T04:20:45.152Z,94564.34
2022-12-05T04:21:46.889Z,94559.53
2022-12-05T04:22:44.592Z,94555.38
2022-12-05T04:23:46.294Z,94551.91
2022-12-05T04:25:03.424Z,94557.69
2022-12-05T04:26:08.744Z,94536.53
2022-12-05T04:27:27.383Z,94551.41
2022-12-05T04:28:29.374Z,94550.13
2022-12-05T04:29:32.320Z,94542.78
2022-12-05T04:30:40.733Z,94548.97
2022-12-05T04:31:43.459Z,94548.53
2022-12-05T04:33:04.423Z,94550.00
2022-12-05T04:34:06.729Z,94558.69
2022-12-05T04:35:09.596Z,94521.03
2022-12-05T04:36:13.951Z,94547.28
2022-12-05T04:37:16.335Z,94482.59
2022-12-05T04:38:25.554Z,94556.44
2022-12-05T04:39:54.495Z,94559.38
2022-12-05T04:41:05.127Z,94552.22
2022-12-05T04:42:07.131Z,94552.03
2022-12-05T04:43:06.331Z,94551.91
2022-12-05T04:44:07.908Z,94552.69
2022-12-05T04:45:10.442Z,94554.84
2022-12-05T04:46:09.081Z,94554.34
2022-12-05T04:47:09.708Z,94545.88
2022-12-05T04:48:12.135Z,94548.41
2022-12-05T04:49:10.184Z,94557.16
2022-12-05T04:50:09.666Z,94500.41
2022-12-05T04:51:09.819Z,94555.00
2022-12-05T04:52:10.108Z,94567.19
2022-12-05T04:53:09.114Z,94560.25
2022-12-05T04:54:17.436Z,94573.25
2022-12-05T04:55:20.232Z,94566.94
2022-12-05T04:56:20.727Z,94553.63
2022-12-05T04:57:31.380Z,94544.44
2022-12-05T04:58:29.923Z,94574.66
2022-12-05T04:59:26.594Z,94512.13
2022-12-05T05:00:23.397Z,94539.69
2022-12-05T05:01:28.253Z,94574.28
2022-12-05T05:02:31.641Z,94573.34
2022-12-05T05:03:44.096Z,94578.28
2022-12-05T05:04:47.895Z,94572.34
2022-12-05T05:05:48.689Z,94585.06
2022-12-05T05:06:45.343Z,94586.41
2022-12-05T05:07:51.840Z,94579.06
2022-12-05T05:08:51.687Z,94584.09
2022-12-05T05:09:48.337Z,94576.34
2022-12-05T05:10:52.579Z,94585.28
2022-12-05T05:11:49.298Z,94548.06
2022-12-05T05:12:46.118Z,94585.25
2022-12-05T05:13:42.712Z,94498.22
2022-12-05T05:14:39.342Z,94583.41
2022-12-05T05:15:35.963Z,94585.44
2022-12-05T05:16:36.678Z,94593.75
2022-12-05T05:17:33.387Z,94592.22
2022-12-05T05:18:30.117Z,94591.31
2022-12-05T05:19:26.784Z,94596.84
2022-12-05T05:20:27.447Z,94590.91
2022-12-05T05:21:34.616Z,94587.44
2022-12-05T05:22:31.154Z,94561.56
2022-12-05T05:23:27.776Z,94582.00
2022-12-05T05:24:26.351Z,94593.44
2022-12-05T05:25:24.316Z,94578.69
2022-12-05T05:26:21.806Z,94593.75
2022-12-05T05:27:18.461Z,94595.56
2022-12-05T05:28:15.082Z,94533.19
2022-12-05T05:29:13.388Z,94592.50
2022-12-05T05:30:10.282Z,94593.63
2022-12-05T05:31:07.717Z,94594.59
2022-12-05T05:32:04.330Z,94599.44
2022-12-05T05:33:01.348Z,94605.44
2022-12-05T05:33:58.334Z,94597.41
2022-12-05T05:34:54.892Z,94604.09
2022-12-05T05:35:51.419Z,94570.38
2022-12-05T05:36:52.140Z,94565.38
2022-12-05T05:37:48.744Z,94607.22
2022-12-05T05:38:48.500Z,94608.94
2022-12-05T05:39:45.099Z,94618.63
2022-12-05T05:40:41.826Z,94615.41
2022-12-05T05:41:38.385Z,94614.13
2022-12-05T05:42:35.148Z,94612.69
2022-12-05T05:43:31.982Z,94561.53
2022-12-05T05:44:28.595Z,94617.94
2022-12-05T05:45:25.210Z,94619.44
2022-12-05T05:46:25.083Z,94619.13
2022-12-05T05:47:21.749Z,94625.91
2022-12-05T05:48:18.500Z,94617.16
2022-12-05T05:49:15.115Z,94617.84
2022-12-05T05:50:16.286Z,94623.28
2022-12-05T05:51:17.261Z,94603.94
2022-12-05T05:52:13.947Z,94617.56
2022-12-05T05:53:10.560Z,94616.22
2022-12-05T05:54:07.237Z,94622.06
2022-12-05T05:55:05.622Z,94594.44
2022-12-05T05:56:04.804Z,94619.06
2022-12-05T05:57:01.422Z,94621.22
2022-12-05T05:57:58.112Z,94616.16
2022-12-05T05:59:03.394Z,94615.72
2022-12-05T06:00:00.191Z,94616.66
2022-12-05T06:01:07.663Z,94587.56
2022-12-05T06:02:04.280Z,94618.34
2022-12-05T06:03:00.995Z,94620.06
2022-12-05T06:03:58.792Z,94616.72
2022-12-05T06:04:55.552Z,94617.84
2022-12-05T06:05:59.156Z,94618.84
2022-12-05T06:06:55.687Z,94609.94
2022-12-05T06:07:55.397Z,94615.06
2022-12-05T06:08:52.064Z,94625.59
2022-12-05T06:09:48.655Z,94618.13
2022-12-05T06:10:45.221Z,94618.78
2022-12-05T06:11:41.855Z,94619.91
2022-12-05T06:12:38.579Z,94618.13
2022-12-05T06:13:35.397Z,94621.78
2022-12-05T06:14:32.171Z,94624.44
2022-12-05T06:15:28.729Z,94623.78
2022-12-05T06:16:25.695Z,94624.63
2022-12-05T06:17:22.350Z,94628.50
2022-12-05T06:18:18.902Z,94627.84
2022-12-05T06:19:15.494Z,94627.91
2022-12-05T06:20:12.338Z,94631.06
2022-12-05T06:21:15.973Z,94612.56
2022-12-05T06:22:13.052Z,94618.84
2022-12-05T06:23:09.720Z,94628.28
2022-12-05T06:24:06.797Z,94632.72
2022-12-05T06:25:03.820Z,94637.06
2022-12-05T06:26:00.440Z,94635.41
2022-12-05T06:26:57.114Z,94631.78
2022-12-05T06:27:53.727Z,94603.00
2022-12-05T06:28:50.507Z,94634.72
2022-12-05T06:29:47.084Z,94634.31
2022-12-05T06:30:43.764Z,94623.78
2022-12-05T06:31:41.975Z,94594.44
2022-12-05T06:32:38.646Z,94598.66
2022-12-05T06:33:35.371Z,94638.34
2022-12-05T06:34:32.779Z,94625.63
2022-12-05T06:35:29.404Z,94543.94
2022-12-05T06:36:26.794Z,94632.84
2022-12-05T06:37:23.458Z,94630.59
2022-12-05T06:38:20.055Z,94628.28
2022-12-05T06:39:16.667Z,94633.56
2022-12-05T06:40:14.035Z,94619.47
2022-12-05T06:41:18.100Z,94637.28
2022-12-05T06:42:14.688Z,94634.78
2022-12-05T06:43:11.693Z,94635.69
2022-12-05T06:44:09.821Z,94638.06
2022-12-05T06:45:07.023Z,94632.84
2022-12-05T06:46:08.383Z,94643.72
2022-12-05T06:47:05.212Z,94637.44
2022-12-05T06:48:01.813Z,94633.56
2022-12-05T06:48:59.448Z,94632.56
2022-12-05T06:49:56.275Z,94633.78
2022-12-05T06:50:53.862Z,94618.66
2022-12-05T06:51:50.432Z,94637.66
2022-12-05T06:52:47.062Z,94641.25
2022-12-05T06:53:44.109Z,94601.38
2022-12-05T06:54:40.743Z,94629.53
2022-12-05T06:55:37.454Z,94562.44
2022-12-05T06:56:34.048Z,94638.38
2022-12-05T06:57:31.152Z,94627.56
2022-12-05T06:58:28.528Z,94599.63
2022-12-05T06:59:25.104Z,94616.56
2022-12-05T07:00:40.285Z,94632.41
2022-12-05T07:01:41.483Z,94638.69
2022-12-05T07:02:38.450Z,94630.72
2022-12-05T07:03:35.354Z,94630.22
2022-12-05T07:04:31.931Z,94634.53
2022-12-05T07:05:28.554Z,94626.13
2022-12-05T07:06:25.359Z,94578.81
2022-12-05T07:07:22.071Z,94628.94
2022-12-05T07:08:18.726Z,94635.75
2022-12-05T07:09:16.818Z,94636.63
2022-12-05T07:10:13.418Z,94629.69
2022-12-05T07:11:10.043Z,94623.09
2022-12-05T07:12:06.801Z,94628.63
2022-12-05T07:13:03.476Z,94633.00
2022-12-05T07:14:00.432Z,94636.38
2022-12-05T07:14:57.011Z,94628.88
2022-12-05T07:15:53.691Z,94632.91
2022-12-05T07:16:51.615Z,94631.16
2022-12-05T07:17:48.256Z,94628.59
2022-12-05T07:18:44.864Z,94586.84
2022-12-05T07:19:41.467Z,94630.03
2022-12-05T07:21:03.884Z,94627.38
2022-12-05T07:21:54.682Z,94631.00
2022-12-05T07:22:51.264Z,94631.78
2022-12-05T07:23:50.110Z,94633.09
2022-12-05T07:24:47.263Z,94635.88
2022-12-05T07:25:43.972Z,94620.22
2022-12-05T07:26:40.554Z,94638.25
2022-12-05T07:27:37.111Z,94641.56
2022-12-05T07:28:33.812Z,94630.69
2022-12-05T07:29:30.617Z,94635.88
2022-12-05T07:30:27.226Z,94638.47
2022-12-05T07:31:26.021Z,94640.53
2022-12-05T07:32:22.744Z,94636.50
2022-12-05T07:33:19.405Z,94639.22
2022-12-05T07:34:15.979Z,94640.06
2022-12-05T07:35:12.592Z,94635.72
2022-12-05T07:36:15.105Z,94642.56
2022-12-05T07:37:13.053Z,94645.50
2022-12-05T07:38:09.690Z,94641.09
2022-12-05T07:39:06.335Z,94643.28
2022-12-05T07:40:02.963Z,94639.41
2022-12-05T07:40:59.690Z,94650.50
2022-12-05T07:41:56.338Z,94649.06
2022-12-05T07:42:55.796Z,94650.63
2022-12-05T07:43:53.930Z,94634.72
2022-12-05T07:44:50.525Z,94638.53
2022-12-05T07:45:47.254Z,94644.34
2022-12-05T07:46:44.077Z,94639.84
2022-12-05T07:47:40.672Z,94645.59
2022-12-05T07:48:37.478Z,94649.25
2022-12-05T07:49:34.193Z,94649.53
2022-12-05T07:50:30.800Z,94616.81
2022-12-05T07:51:27.480Z,94640.44
2022-12-05T07:52:24.238Z,94640.13
2022-12-05T07:53:20.840Z,94642.91
2022-12-05T07:54:17.531Z,94648.00
2022-12-05T07:55:14.167Z,94642.78
2022-12-05T07:56:17.289Z,94639.63
2022-12-05T07:57:13.915Z,94641.94
2022-12-05T07:58:10.498Z,94634.59
2022-12-05T07:59:07.039Z,94649.22
2022-12-05T08:00:04.588Z,94598.78
2022-12-05T08:01:12.964Z,94644.94
2022-12-05T08:02:09.697Z,94653.97
2022-12-05T08:03:06.353Z,94643.25
2022-12-05T08:04:03.095Z,94658.22
2022-12-05T08:04:59.772Z,94648.63
2022-12-05T08:05:56.370Z,94630.72
2022-12-05T08:06:53.087Z,94653.66
2022-12-05T08:07:49.812Z,94655.06
2022-12-05T08:08:51.197Z,94660.81
2022-12-05T08:09:47.888Z,94658.91
2022-12-05T08:10:44.485Z,94658.69
2022-12-05T08:11:41.265Z,94652.38
2022-12-05T08:12:38.409Z,94659.84
2022-12-05T08:13:35.203Z,94660.13
2022-12-05T08:14:32.057Z,94662.63
2022-12-05T08:15:28.787Z,94659.72
2022-12-05T08:16:28.933Z,94655.47
2022-12-05T08:17:26.702Z,94657.06
2022-12-05T08:18:27.322Z,94634.50
2022-12-05T08:19:24.261Z,94643.72
2022-12-05T08:20:20.929Z,94661.81
2022-12-05T08:21:19.663Z,94654.22
2022-12-05T08:22:16.226Z,94632.03
2022-12-05T08:23:12.849Z,94665.66
2022-12-05T08:24:09.591Z,94664.72
2022-12-05T08:25:06.747Z,94654.66
2022-12-05T08:26:27.017Z,94656.19
2022-12-05T08:27:23.676Z,94659.84
2022-12-05T08:28:20.470Z,94658.19
2022-12-05T08:29:21.307Z,94646.09
2022-12-05T08:30:18.305Z,94662.41
2022-12-05T08:31:17.625Z,94644.91
2022-12-05T08:32:14.340Z,94658.69
2022-12-05T08:33:10.981Z,94659.06
2022-12-05T08:34:08.231Z,94658.97
2022-12-05T08:35:05.262Z,94658.19
2022-12-05T08:36:03.689Z,94641.00
2022-12-05T08:37:00.301Z,94655.13
2022-12-05T08:37:56.874Z,94659.84
2022-12-05T08:38:58.642Z,94547.09
2022-12-05T08:39:55.401Z,94653.84
2022-12-05T08:40:52.039Z,94645.13
2022-12-05T08:41:49.721Z,94652.41
2022-12-05T08:42:46.357Z,94656.44
2022-12-05T08:43:44.425Z,94653.00
2022-12-05T08:44:41.050Z,94656.72
2022-12-05T08:45:37.737Z,94611.88
2022-12-05T08:46:38.091Z,94647.69
2022-12-05T08:47:37.447Z,94640.84
2022-12-05T08:48:35.639Z,94650.44
2022-12-05T08:49:32.433Z,94650.94
2022-12-05T08:50:29.013Z,94587.16
2022-12-05T08:51:25.650Z,94649.38
2022-12-05T08:52:22.936Z,94648.75
2022-12-05T08:53:19.532Z,94632.00
2022-12-05T08:54:16.677Z,94613.44
2022-12-05T08:55:13.329Z,94646.91
2022-12-05T08:56:10.942Z,94648.97
2022-12-05T08:57:07.538Z,94650.75
2022-12-05T08:58:04.426Z,94645.44
2022-12-05T08:59:05.976Z,94630.44
2022-12-05T09:00:06.071Z,94621.03
2022-12-05T09:01:18.119Z,94644.16
2022-12-05T09:02:14.996Z,94646.44
2022-12-05T09:03:12.446Z,94646.25
2022-12-05T09:04:09.618Z,94612.56
2022-12-05T09:05:26.510Z,94643.66
2022-12-05T09:06:25.259Z,94641.63
2022-12-05T09:07:21.896Z,94647.50
2022-12-05T09:08:18.564Z,94633.47
2022-12-05T09:09:16.382Z,94641.91
2022-12-05T09:10:13.182Z,94643.69
2022-12-05T09:11:21.439Z,94631.41
2022-12-05T09:12:18.094Z,94633.75
2022-12-05T09:13:14.940Z,94635.50
2022-12-05T09:14:12.192Z,94638.38
2022-12-05T09:15:10.687Z,94638.84
2022-12-05T09:16:12.326Z,94634.56
2022-12-05T09:17:09.051Z,94600.41
2022-12-05T09:18:05.643Z,94637.69
2022-12-05T09:19:02.238Z,94635.91
2022-12-05T09:19:58.863Z,94630.44
2022-12-05T09:20:56.671Z,94625.13
2022-12-05T09:21:54.111Z,94611.84
2022-12-05T09:22:52.410Z,94599.72
2022-12-05T09:23:49.205Z,94625.22
2022-12-05T09:24:45.870Z,94636.09
2022-12-05T09:25:42.535Z,94626.19
2022-12-05T09:26:39.974Z,94634.00
2022-12-05T09:27:37.061Z,94632.06
2022-12-05T09:28:35.260Z,94633.28
2022-12-05T09:29:31.824Z,94630.91
2022-12-05T09:30:29.033Z,94549.16
2022-12-05T09:31:27.464Z,94635.09
2022-12-05T09:32:24.447Z,94629.16
2022-12-05T09:33:21.053Z,94610.69
2022-12-05T09:34:18.670Z,94577.25
2022-12-05T09:35:15.717Z,94621.78
2022-12-05T09:36:16.320Z,94624.09
2022-12-05T09:37:37.423Z,94594.78
2022-12-05T09:38:29.538Z,94621.19
2022-12-05T09:39:26.114Z,94629.13
2022-12-05T09:40:22.825Z,94630.31
2022-12-05T09:42:10.252Z,94621.44
2022-12-05T09:43:09.110Z,94625.19
2022-12-05T09:44:14.400Z,94591.91
2022-12-05T09:45:15.278Z,94622.47
2022-12-05T09:46:29.280Z,94620.91
2022-12-05T09:47:28.118Z,94615.09
2022-12-05T09:48:25.043Z,94619.03
2022-12-05T09:49:23.947Z,94617.47
2022-12-05T09:50:25.240Z,94618.88
2022-12-05T09:51:22.274Z,94610.63
2022-12-05T09:52:27.645Z,94613.69
2022-12-05T09:53:30.707Z,94619.34
2022-12-05T09:54:28.166Z,94610.28
2022-12-05T09:55:25.708Z,94612.31
2022-12-05T09:56:30.794Z,94615.34
2022-12-05T09:57:35.170Z,94611.91
2022-12-05T09:58:40.595Z,94612.03
2022-12-05T09:59:37.204Z,94608.69
2022-12-05T10:00:34.346Z,94603.81
2022-12-05T10:01:43.069Z,94596.75
2022-12-05T10:02:45.772Z,94605.81
2022-12-05T10:04:05.134Z,94609.38
2022-12-05T10:05:17.793Z,94608.47
2022-12-05T10:06:28.710Z,94612.56
2022-12-05T10:07:34.466Z,94609.22
2022-12-05T10:08:58.538Z,94593.56
2022-12-05T10:10:38.511Z,94604.97
2022-12-05T10:11:44.504Z,94605.00
2022-12-05T10:12:56.749Z,94613.91
2022-12-05T10:14:06.516Z,94604.00
2022-12-05T10:15:16.884Z,94579.44
2022-12-05T10:16:26.780Z,94609.50
2022-12-05T10:17:34.457Z,94606.94
2022-12-05T10:18:48.519Z,94611.13
2022-12-05T10:19:49.838Z,94601.53
2022-12-05T10:20:48.812Z,94605.16
2022-12-05T10:22:10.295Z,94554.06
2022-12-05T10:23:41.276Z,94559.03
2022-12-05T10:24:40.955Z,94601.28
2022-12-05T10:25:39.809Z,94559.06
2022-12-05T10:26:58.916Z,94606.50
2022-12-05T10:27:59.997Z,94584.63
2022-12-05T10:29:03.594Z,94571.03
2022-12-05T10:30:04.733Z,94596.09
2022-12-05T10:31:07.744Z,94600.44
2022-12-05T10:32:18.392Z,94603.03
2022-12-05T10:33:21.260Z,94599.59
2022-12-05T10:34:39.137Z,94599.31
2022-12-05T10:35:40.634Z,94535.97
2022-12-05T10:36:37.211Z,94584.59
2022-12-05T10:37:33.956Z,94591.81
2022-12-05T10:38:31.400Z,94596.66
2022-12-05T10:39:28.332Z,94544.72
2022-12-05T10:40:30.728Z,94587.13
2022-12-05T10:41:28.753Z,94587.94
2022-12-05T10:42:35.515Z,94586.38
2022-12-05T10:43:34.536Z,94582.31
2022-12-05T10:44:33.169Z,94585.63
2022-12-05T10:45:29.870Z,94574.53
2022-12-05T10:46:26.773Z,94575.00
2022-12-05T10:47:23.470Z,94579.13
2022-12-05T10:48:21.442Z,94567.88
2022-12-05T10:49:19.341Z,94504.38
2022-12-05T10:50:28.071Z,94581.41
2022-12-05T10:51:31.304Z,94583.09
2022-12-05T10:52:32.749Z,94579.94
2022-12-05T10:53:39.229Z,94563.75
2022-12-05T10:54:47.359Z,94576.69
2022-12-05T10:56:28.062Z,94576.81
2022-12-05T10:57:20.803Z,94581.38
2022-12-05T10:58:25.610Z,94583.47
2022-12-05T10:59:25.211Z,94580.84
2022-12-05T11:00:30.240Z,94566.34
2022-12-05T11:01:28.476Z,94560.63
2022-12-05T11:02:31.415Z,94575.72
2022-12-05T11:03:31.647Z,94574.53
2022-12-05T11:04:43.472Z,94569.25
2022-12-05T11:05:41.164Z,94524.41
2022-12-05T11:06:37.934Z,94557.66
2022-12-05T11:07:43.021Z,94548.91
2022-12-05T11:09:03.582Z,94560.44
2022-12-05T11:09:59.194Z,94548.97
2022-12-05T11:11:29.068Z,94553.41
2022-12-05T11:12:36.703Z,94557.41
2022-12-05T11:13:34.951Z,94541.50
2022-12-05T11:14:34.423Z,94559.31
2022-12-05T11:15:31.862Z,94521.09
2022-12-05T11:16:33.524Z,94554.75
2022-12-05T11:17:36.346Z,94555.34
2022-12-05T11:18:34.676Z,94554.88
2022-12-05T11:19:36.442Z,94538.72
2022-12-05T11:20:37.685Z,94551.66
2022-12-05T11:21:42.975Z,94548.34
2022-12-05T11:22:42.172Z,94548.97
2022-12-05T11:23:41.802Z,94510.22
2022-12-05T11:24:39.295Z,94547.03
2022-12-05T11:25:36.628Z,94543.47
2022-12-05T11:26:37.724Z,94547.56
2022-12-05T11:27:34.325Z,94538.81
2022-12-05T11:28:34.838Z,94546.34
2022-12-05T11:29:37.203Z,94536.97
2022-12-05T11:30:33.800Z,94535.25
2022-12-05T11:31:32.030Z,94509.84
2022-12-05T11:32:33.878Z,94535.56
2022-12-05T11:33:33.267Z,94534.44
2022-12-05T11:34:37.833Z,94542.31
2022-12-05T11:35:34.528Z,94540.81
2022-12-05T11:36:46.665Z,94532.38
2022-12-05T11:37:49.054Z,94523.22
2022-12-05T11:38:45.886Z,94461.38
2022-12-05T11:39:42.515Z,94529.66
2022-12-05T11:40:41.886Z,94526.13
2022-12-05T11:41:59.936Z,94527.88
2022-12-05T11:43:24.323Z,94523.41
2022-12-05T11:44:39.137Z,94519.91
2022-12-05T11:45:44.666Z,94521.72
2022-12-05T11:47:11.793Z,94519.38
2022-12-05T11:48:39.509Z,94517.63
2022-12-05T11:49:53.618Z,94515.44
2022-12-05T11:50:58.883Z,94521.00
2022-12-05T11:52:29.304Z,94515.91
2022-12-05T11:53:47.597Z,94512.44
2022-12-05T11:55:04.948Z,94506.59
2022-12-05T11:56:36.051Z,94502.53
2022-12-05T11:58:01.983Z,94508.53
2022-12-05T11:59:01.239Z,94505.94
2022-12-05T12:00:03.530Z,94510.75